createdAt,value
2024-01-28T00:01:46.553Z,17.60
2024-01-28T00:06:49.625Z,16.60
2024-01-28T00:11:52.778Z,20.10
2024-01-28T00:16:55.672Z,17.10
2024-01-28T00:21:58.590Z,14.00
2024-01-28T00:27:01.716Z,13.80
2024-01-28T00:32:05.027Z,20.80
2024-01-28T00:37:07.949Z,12.90
2024-01-28T00:42:10.828Z,20.30
2024-01-28T00:47:13.709Z,14.40
2024-01-28T00:52:16.630Z,20.00
2024-01-28T00:57:19.550Z,18.00
2024-01-28T01:02:22.459Z,16.30
2024-01-28T01:07:26.484Z,18.30
2024-01-28T01:12:29.534Z,13.50
2024-01-28T01:17:32.573Z,18.80
2024-01-28T01:22:35.482Z,17.30
2024-01-28T01:27:38.434Z,20.80
2024-01-28T01:32:42.202Z,15.30
2024-01-28T01:37:45.307Z,17.50
2024-01-28T01:42:48.747Z,12.90
2024-01-28T01:47:51.822Z,15.10
2024-01-28T01:52:55.050Z,16.50
2024-01-28T01:57:58.460Z,17.10
2024-01-28T02:03:05.402Z,15.10
2024-01-28T02:08:08.976Z,11.60
2024-01-28T02:13:11.889Z,13.30
2024-01-28T02:18:15.333Z,9.20
2024-01-28T02:23:24.380Z,13.10
2024-01-28T02:28:27.348Z,11.80
2024-01-28T02:33:30.331Z,7.20
2024-01-28T02:38:33.567Z,11.60
2024-01-28T02:43:36.470Z,7.50
2024-01-28T02:48:39.492Z,11.90
2024-01-28T02:53:42.483Z,11.80
2024-01-28T02:58:45.799Z,11.40
2024-01-28T03:03:48.828Z,4.80
2024-01-28T03:08:52.224Z,5.60
2024-01-28T03:13:55.030Z,11.30
2024-01-28T03:18:59.435Z,5.30
2024-01-28T03:24:02.365Z,7.90
2024-01-28T03:29:08.805Z,8.40
2024-01-28T03:34:11.906Z,12.80
2024-01-28T03:39:15.642Z,13.80
2024-01-28T03:44:24.023Z,14.00
2024-01-28T03:49:28.864Z,9.60
2024-01-28T03:54:31.840Z,5.20
2024-01-28T03:59:38.880Z,10.30
2024-01-28T04:04:42.008Z,10.30
2024-01-28T04:09:44.986Z,9.00
2024-01-28T04:14:48.002Z,8.60
2024-01-28T04:19:51.203Z,12.10
2024-01-28T04:24:54.377Z,9.90
2024-01-28T04:29:57.337Z,8.30
2024-01-28T04:35:00.358Z,10.50
2024-01-28T04:40:03.581Z,5.90
2024-01-28T04:45:06.928Z,8.90
2024-01-28T04:50:10.483Z,6.10
2024-01-28T04:55:13.517Z,9.30
2024-01-28T05:00:17.202Z,6.90
2024-01-28T05:05:20.227Z,9.10
2024-01-28T05:10:23.389Z,5.70
2024-01-28T05:15:27.717Z,8.60
2024-01-28T05:20:30.794Z,7.10
2024-01-28T05:25:33.946Z,8.40
2024-01-28T05:30:37.166Z,7.60
2024-01-28T05:35:40.246Z,10.60
2024-01-28T05:40:43.238Z,10.10
2024-01-28T05:45:46.265Z,11.30
2024-01-28T05:50:49.224Z,9.10
2024-01-28T05:55:55.302Z,10.10
2024-01-28T06:01:02.991Z,10.30
2024-01-28T06:06:06.170Z,11.80
2024-01-28T06:11:09.128Z,9.00
2024-01-28T06:16:12.043Z,9.30
2024-01-28T06:21:15.163Z,9.80
2024-01-28T06:26:19.520Z,9.30
2024-01-28T06:31:22.727Z,8.90
2024-01-28T06:36:25.833Z,8.20
2024-01-28T06:41:28.841Z,10.10
2024-01-28T06:46:31.830Z,11.60
2024-01-28T06:51:34.766Z,9.30
2024-01-28T06:56:38.029Z,12.90
2024-01-28T07:01:41.234Z,9.60
2024-01-28T07:06:45.247Z,8.60
2024-01-28T07:11:48.933Z,7.90
2024-01-28T07:16:52.005Z,9.60
2024-01-28T07:21:55.045Z,11.00
2024-01-28T07:26:58.024Z,11.80
2024-01-28T07:32:01.297Z,12.30
2024-01-28T07:37:04.342Z,10.70
2024-01-28T07:42:07.500Z,12.10
2024-01-28T07:47:10.462Z,9.20
2024-01-28T07:52:13.341Z,12.80
2024-01-28T07:57:16.309Z,11.00
2024-01-28T08:02:19.374Z,7.30
2024-01-28T08:07:22.324Z,10.60
2024-01-28T08:12:25.349Z,9.60
2024-01-28T08:17:28.322Z,12.40
2024-01-28T08:22:31.316Z,7.50
2024-01-28T08:27:34.332Z,13.40
2024-01-28T08:32:37.396Z,10.50
2024-01-28T08:37:41.134Z,13.10
2024-01-28T08:42:43.988Z,11.70
2024-01-28T08:47:46.963Z,10.30
2024-01-28T08:52:50.049Z,10.90
2024-01-28T08:57:52.905Z,10.80
2024-01-28T09:02:55.956Z,9.10
2024-01-28T09:07:59.220Z,12.00
2024-01-28T09:13:02.666Z,9.70
2024-01-28T09:18:06.055Z,11.00
2024-01-28T09:23:09.221Z,9.40
2024-01-28T09:28:12.121Z,10.80
2024-01-28T09:33:15.270Z,10.60
2024-01-28T09:38:18.590Z,10.70
2024-01-28T09:43:30.954Z,12.30
2024-01-28T09:48:35.691Z,10.90
2024-01-28T09:53:38.838Z,10.20
2024-01-28T09:58:41.763Z,11.40
2024-01-28T10:03:45.071Z,13.20
2024-01-28T10:08:48.279Z,10.10
2024-01-28T10:13:52.671Z,12.00
2024-01-28T10:18:55.613Z,17.30
2024-01-28T10:23:59.018Z,13.10
2024-01-28T10:29:01.916Z,14.10
2024-01-28T10:34:05.540Z,19.40
2024-01-28T10:39:14.968Z,10.60
2024-01-28T10:44:20.675Z,11.10
2024-01-28T10:49:28.882Z,10.90
2024-01-28T10:54:32.073Z,7.90
2024-01-28T10:59:38.188Z,8.40
2024-01-28T11:04:41.615Z,8.70
2024-01-28T11:09:44.648Z,11.90
2024-01-28T11:14:48.356Z,7.50
2024-01-28T11:19:51.332Z,5.20
2024-01-28T11:24:54.591Z,8.20
2024-01-28T11:29:58.387Z,8.10
2024-01-28T11:35:01.457Z,12.50
2024-01-28T11:40:10.929Z,8.00
2024-01-28T11:45:13.862Z,11.60
2024-01-28T11:50:17.805Z,7.90
2024-01-28T11:55:20.891Z,9.20
2024-01-28T12:00:26.825Z,6.10
2024-01-28T12:05:29.767Z,13.80
2024-01-28T12:10:32.687Z,8.10
2024-01-28T12:15:35.812Z,6.40
2024-01-28T12:20:39.006Z,9.60
2024-01-28T12:25:42.112Z,9.40
2024-01-28T12:30:45.072Z,7.70
2024-01-28T12:35:48.218Z,5.10
2024-01-28T12:40:51.356Z,6.80
2024-01-28T12:45:54.505Z,8.50
2024-01-28T12:50:57.650Z,8.00
2024-01-28T12:56:00.560Z,6.30
2024-01-28T13:01:05.558Z,10.60
2024-01-28T13:06:09.247Z,10.40
2024-01-28T13:11:12.129Z,10.00
2024-01-28T13:16:15.232Z,7.50
2024-01-28T13:21:18.697Z,4.10
2024-01-28T13:26:23.192Z,4.40
2024-01-28T13:31:26.199Z,6.40
2024-01-28T13:36:29.253Z,7.70
2024-01-28T13:41:32.319Z,17.20
2024-01-28T13:46:35.224Z,7.00
2024-01-28T13:51:42.469Z,12.20
2024-01-28T13:56:45.639Z,11.00
2024-01-28T14:01:48.686Z,17.40
2024-01-28T14:06:51.805Z,11.20
2024-01-28T14:11:54.965Z,19.50
2024-01-28T14:16:57.917Z,11.00
2024-01-28T14:22:01.494Z,20.80
2024-01-28T14:27:04.837Z,15.10
2024-01-28T14:32:08.234Z,20.50
2024-01-28T14:37:11.559Z,13.30
2024-01-28T14:42:14.580Z,11.10
2024-01-28T14:47:17.557Z,21.80
2024-01-28T14:52:20.461Z,15.50
2024-01-28T14:57:23.502Z,15.70
2024-01-28T15:02:28.114Z,15.00
2024-01-28T15:07:31.003Z,15.30
2024-01-28T15:12:33.953Z,13.40
2024-01-28T15:17:37.365Z,8.50
2024-01-28T15:22:40.234Z,11.00
2024-01-28T15:27:43.623Z,10.50
2024-01-28T15:32:48.106Z,13.40
2024-01-28T15:37:51.404Z,12.40
2024-01-28T15:42:54.467Z,11.60
2024-01-28T15:47:57.595Z,11.90
2024-01-28T15:53:00.627Z,8.20
2024-01-28T15:58:03.863Z,11.30
2024-01-28T16:03:06.756Z,9.90
2024-01-28T16:08:13.596Z,8.70
2024-01-28T16:13:17.822Z,7.90
2024-01-28T16:18:21.149Z,9.00
2024-01-28T16:23:24.100Z,9.90
2024-01-28T16:28:27.549Z,8.20
2024-01-28T16:33:30.770Z,11.40
2024-01-28T16:38:33.857Z,13.90
2024-01-28T16:43:36.840Z,10.50
2024-01-28T16:48:39.836Z,12.50
2024-01-28T16:53:43.143Z,19.30
2024-01-28T16:58:46.120Z,9.80
2024-01-28T17:03:49.106Z,14.30
2024-01-28T17:08:51.972Z,11.00
2024-01-28T17:13:54.873Z,8.60
2024-01-28T17:18:58.145Z,7.00
2024-01-28T17:24:01.298Z,9.00
2024-01-28T17:29:04.508Z,10.10
2024-01-28T17:34:07.849Z,9.50
2024-01-28T17:39:11.346Z,9.80
2024-01-28T17:44:15.482Z,12.00
2024-01-28T17:49:18.925Z,9.90
2024-01-28T17:54:21.922Z,12.20
2024-01-28T17:59:25.324Z,9.90
2024-01-28T18:04:28.397Z,12.70
2024-01-28T18:09:31.336Z,9.50
2024-01-28T18:14:34.235Z,13.20
2024-01-28T18:19:37.262Z,10.60
2024-01-28T18:24:40.266Z,10.30
2024-01-28T18:29:43.245Z,11.30
2024-01-28T18:34:46.390Z,11.70
2024-01-28T18:39:49.532Z,13.20
2024-01-28T18:44:52.481Z,13.20
2024-01-28T18:49:55.885Z,14.90
2024-01-28T18:54:59.067Z,12.80
2024-01-28T19:00:02.624Z,14.20
2024-01-28T19:05:08.586Z,12.60
2024-01-28T19:10:12.191Z,40.00
2024-01-28T19:15:15.270Z,22.40
2024-01-28T19:20:22.493Z,16.80
2024-01-28T19:25:25.436Z,12.70
2024-01-28T19:30:29.547Z,12.90
2024-01-28T19:35:32.408Z,19.50
2024-01-28T19:40:35.308Z,19.60
2024-01-28T19:45:38.847Z,13.70
2024-01-28T19:50:42.218Z,17.00
2024-01-28T19:55:45.222Z,17.00
2024-01-28T20:00:48.239Z,18.00
2024-01-28T20:05:51.765Z,20.10
2024-01-28T20:10:54.772Z,10.20
2024-01-28T20:15:58.004Z,14.00
2024-01-28T20:21:00.983Z,13.60
2024-01-28T20:26:03.878Z,11.70
2024-01-28T20:31:07.231Z,14.90
2024-01-28T20:36:10.296Z,15.20
2024-01-28T20:41:13.510Z,15.80
2024-01-28T20:46:16.246Z,13.00
2024-01-28T20:51:19.960Z,18.90
2024-01-28T20:56:23.871Z,13.90
2024-01-28T21:01:26.990Z,10.50
2024-01-28T21:06:30.245Z,17.80
2024-01-28T21:11:33.185Z,15.80
2024-01-28T21:16:36.101Z,15.80
2024-01-28T21:21:40.980Z,15.20
2024-01-28T21:26:43.945Z,19.40
2024-01-28T21:31:46.845Z,21.60
2024-01-28T21:36:50.708Z,22.70
2024-01-28T21:41:53.883Z,21.50
2024-01-28T21:46:56.907Z,22.10
2024-01-28T21:52:00.093Z,21.90
2024-01-28T21:57:03.528Z,20.80
2024-01-28T22:02:07.038Z,16.00
2024-01-28T22:07:10.426Z,17.90
2024-01-28T22:12:13.465Z,14.50
2024-01-28T22:17:16.397Z,16.90
2024-01-28T22:22:19.267Z,18.70
2024-01-28T22:27:22.717Z,15.50
2024-01-28T22:32:25.909Z,17.70
2024-01-28T22:37:28.918Z,22.40
2024-01-28T22:42:32.125Z,18.00
2024-01-28T22:47:35.208Z,16.50
2024-01-28T22:52:38.121Z,13.80
2024-01-28T22:57:41.920Z,18.80
2024-01-28T23:02:46.590Z,19.20
2024-01-28T23:07:50.217Z,20.70
2024-01-28T23:12:53.869Z,17.70
2024-01-28T23:17:56.933Z,20.60
2024-01-28T23:23:00.273Z,15.00
2024-01-28T23:28:04.208Z,15.30
2024-01-28T23:33:07.574Z,15.70
2024-01-28T23:38:11.538Z,15.30
2024-01-28T23:43:14.338Z,15.40
2024-01-28T23:48:17.483Z,15.70
2024-01-28T23:53:20.450Z,17.80
2024-01-28T23:58:24.419Z,15.80
